Time;durP1;ratioP1;P1;durP2;ratioP2;P2;SDS_P1;SDS_P2;PMS_P1;PMS_P2;Temp;Humidity;BMP_temperature;BMP_pressure;BME280_temperature;BME280_humidity;BME280_pressure;Samples;Min_cycle;Max_cycle;Signal;HPM_P1;HPM_P2
2022/07/10 08:29:42;;;;;;;2.25;1.35;;;19.80;89.40;;;;;;5067582;28;20902;-47
2022/07/10 08:32:12;;;;;;;4.82;1.80;;;19.80;89.80;;;;;;5056548;28;20037;-54
2022/07/10 08:34:39;;;;;;;3.13;1.30;;;19.80;90.50;;;;;;5050274;28;20030;-51
2022/07/10 08:37:05;;;;;;;3.95;1.60;;;20.00;89.50;;;;;;5053498;28;20094;-49
2022/07/10 08:39:32;;;;;;;3.22;1.40;;;20.10;88.80;;;;;;5049910;28;20500;-50
2022/07/10 08:41:59;;;;;;;2.85;1.38;;;20.20;88.70;;;;;;5050464;28;20052;-51
2022/07/10 08:44:26;;;;;;;2.92;1.30;;;20.30;88.50;;;;;;5041849;28;20095;-50
2022/07/10 08:46:52;;;;;;;3.97;1.30;;;20.50;88.60;;;;;;5049433;28;20048;-51
2022/07/10 08:49:19;;;;;;;3.35;1.60;;;20.60;88.50;;;;;;5049941;28;20120;-44
2022/07/10 08:51:46;;;;;;;4.03;1.20;;;20.70;86.90;;;;;;5053669;28;20044;-48
2022/07/10 08:54:13;;;;;;;3.08;1.40;;;20.70;86.90;;;;;;5049927;28;20400;-49
2022/07/10 08:56:47;;;;;;;2.45;1.20;;;20.70;86.60;;;;;;5046041;28;20048;-48
2022/07/10 08:59:14;;;;;;;2.83;1.20;;;20.80;86.20;;;;;;5047968;28;20122;-50
2022/07/10 09:01:41;;;;;;;7.88;1.63;;;20.80;86.00;;;;;;5046296;28;20063;-51
2022/07/10 09:04:08;;;;;;;2.58;1.40;;;20.90;86.30;;;;;;5049575;28;20111;-45
2022/07/10 09:06:35;;;;;;;2.30;1.40;;;20.90;85.70;;;;;;5049753;28;20048;-47
2022/07/10 09:09:01;;;;;;;3.58;1.55;;;21.00;85.90;;;;;;5049032;28;20034;-49
2022/07/10 09:11:29;;;;;;;3.63;1.20;;;21.00;85.10;;;;;;5048937;28;20034;-46
2022/07/10 09:13:56;;;;;;;3.28;1.30;;;21.10;85.50;;;;;;5050465;28;20072;-46
2022/07/10 09:16:23;;;;;;;3.72;1.50;;;21.20;85.30;;;;;;5049176;28;20068;-52
2022/07/10 09:18:50;;;;;;;4.78;1.50;;;21.10;85.20;;;;;;5049161;28;20506;-51
2022/07/10 09:21:17;;;;;;;7.45;1.33;;;21.20;85.40;;;;;;5052177;28;20100;-51
2022/07/10 09:23:44;;;;;;;3.78;1.50;;;21.20;85.10;;;;;;5049142;28;20092;-50
2022/07/10 09:26:10;;;;;;;4.60;1.52;;;21.30;85.30;;;;;;5048899;28;20060;-54
2022/07/10 09:28:37;;;;;;;2.45;1.13;;;21.40;84.90;;;;;;5048355;28;20073;-54
2022/07/10 09:31:05;;;;;;;4.75;1.60;;;21.50;84.40;;;;;;5051531;28;20060;-49
2022/07/10 09:33:33;;;;;;;4.10;1.10;;;21.60;83.60;;;;;;5049631;28;20503;-51
2022/07/10 09:36:13;;;;;;;4.57;1.40;;;21.60;83.60;;;;;;5049326;28;20041;-54
2022/07/10 09:38:40;;;;;;;3.38;1.60;;;21.60;84.50;;;;;;5050663;28;20507;-53
2022/07/10 09:41:08;;;;;;;4.20;1.20;;;21.70;83.30;;;;;;5038360;28;20125;-55
2022/07/10 09:43:34;;;;;;;4.05;1.65;;;21.70;83.70;;;;;;5029410;28;20049;-54
2022/07/10 09:46:01;;;;;;;3.88;1.27;;;21.80;84.00;;;;;;5033425;28;20072;-48
2022/07/10 09:48:29;;;;;;;3.30;1.38;;;21.90;84.00;;;;;;5031942;28;20034;-46
2022/07/10 09:50:55;;;;;;;4.22;1.35;;;22.10;83.20;;;;;;5035857;28;20073;-47
2022/07/10 09:53:22;;;;;;;3.22;1.42;;;22.00;82.50;;;;;;5042523;28;20528;-48
2022/07/10 09:55:49;;;;;;;4.25;1.45;;;22.00;82.90;;;;;;5034399;28;20046;-50
2022/07/10 09:58:16;;;;;;;2.88;1.38;;;22.00;83.00;;;;;;5035610;28;20048;-49
2022/07/10 10:00:45;;;;;;;3.90;1.55;;;22.10;82.40;;;;;;5036959;28;20487;-51
2022/07/10 10:03:13;;;;;;;3.17;1.55;;;22.20;81.90;;;;;;5030886;28;20049;-51
2022/07/10 10:05:39;;;;;;;5.45;1.42;;;22.20;82.50;;;;;;5036229;28;20045;-55
2022/07/10 10:08:06;;;;;;;3.40;1.65;;;22.20;82.20;;;;;;5033922;28;20147;-50
2022/07/10 10:10:33;;;;;;;3.30;1.30;;;22.30;82.40;;;;;;5035406;28;20111;-50
2022/07/10 10:13:00;;;;;;;5.15;1.60;;;22.30;82.40;;;;;;5034437;28;20136;-47
2022/07/10 10:15:26;;;;;;;5.97;1.60;;;22.30;81.80;;;;;;5040109;28;20065;-51
2022/07/10 10:17:53;;;;;;;3.92;1.67;;;22.30;81.50;;;;;;5034049;28;20045;-49
2022/07/10 10:20:39;;;;;;;3.97;1.52;;;22.40;81.70;;;;;;5035174;28;20108;-51
2022/07/10 10:23:07;;;;;;;2.70;1.50;;;22.50;82.70;;;;;;5031599;28;20025;-50
2022/07/10 10:25:34;;;;;;;3.70;1.73;;;22.60;81.40;;;;;;5033542;28;20045;-54
2022/07/10 10:28:01;;;;;;;4.50;1.58;;;22.70;80.00;;;;;;5032053;28;20053;-55
2022/07/10 10:30:28;;;;;;;4.47;1.67;;;22.70;79.60;;;;;;5034807;28;20500;-48
2022/07/10 10:32:55;;;;;;;5.05;1.50;;;22.70;80.00;;;;;;5034524;28;20071;-51
2022/07/10 10:35:22;;;;;;;3.42;1.52;;;22.70;80.30;;;;;;5034549;28;20116;-50
2022/07/10 10:37:49;;;;;;;4.22;1.35;;;22.90;80.30;;;;;;5031080;28;20404;-50
2022/07/10 10:40:15;;;;;;;6.43;2.13;;;22.90;79.10;;;;;;5033195;28;20496;-53
2022/07/10 10:42:43;;;;;;;4.28;1.38;;;22.90;79.40;;;;;;5029235;28;20041;-54
2022/07/10 10:45:10;;;;;;;3.13;1.50;;;22.90;79.20;;;;;;5033002;28;20033;-54
2022/07/10 10:47:37;;;;;;;3.88;1.40;;;22.80;79.60;;;;;;5029860;28;20465;-54
2022/07/10 10:50:04;;;;;;;3.20;1.70;;;22.90;79.10;;;;;;5036449;28;20385;-50
2022/07/10 10:52:31;;;;;;;2.40;1.20;;;23.10;79.30;;;;;;5033940;28;20092;-49
2022/07/10 10:55:03;;;;;;;3.47;1.38;;;23.20;78.40;;;;;;5028922;28;20065;-51
2022/07/10 10:57:30;;;;;;;4.07;1.30;;;23.30;77.80;;;;;;5032461;28;20033;-50
2022/07/10 10:59:58;;;;;;;2.42;1.33;;;23.30;76.10;;;;;;5035354;28;20092;-49
2022/07/10 11:02:24;;;;;;;4.10;1.63;;;23.30;76.60;;;;;;5033686;28;20041;-52
2022/07/10 11:04:51;;;;;;;3.00;1.23;;;23.30;76.00;;;;;;5033374;28;20201;-51
2022/07/10 11:07:18;;;;;;;5.25;1.38;;;23.30;75.70;;;;;;5034684;28;20496;-51
2022/07/10 11:09:45;;;;;;;4.50;1.38;;;23.40;76.20;;;;;;5032245;28;20046;-50
2022/07/10 11:12:12;;;;;;;5.50;1.45;;;23.50;74.60;;;;;;5034248;28;20042;-51
2022/07/10 11:14:39;;;;;;;6.10;1.45;;;23.50;75.40;;;;;;5036119;28;20116;-48
2022/07/10 11:17:06;;;;;;;4.10;1.40;;;23.50;74.60;;;;;;5034145;28;20045;-52
2022/07/10 11:19:33;;;;;;;3.53;1.25;;;23.60;74.90;;;;;;5034689;28;20121;-52
2022/07/10 11:22:00;;;;;;;2.63;1.23;;;23.60;75.40;;;;;;5037112;28;20120;-49
2022/07/10 11:24:27;;;;;;;3.60;1.25;;;23.70;75.60;;;;;;5034264;28;20551;-47
2022/07/10 11:26:53;;;;;;;3.83;1.30;;;23.70;75.20;;;;;;5039035;28;20040;-50
2022/07/10 11:29:20;;;;;;;3.67;1.30;;;23.80;74.20;;;;;;5035704;28;20057;-53
2022/07/10 11:31:47;;;;;;;5.88;1.60;;;23.90;75.20;;;;;;5031218;28;20041;-50
2022/07/10 11:34:14;;;;;;;4.25;1.38;;;24.00;73.90;;;;;;5030113;28;20041;-47
2022/07/10 11:36:41;;;;;;;3.00;1.40;;;23.90;73.30;;;;;;5033323;28;20052;-52
2022/07/10 11:39:08;;;;;;;2.63;1.05;;;24.00;73.10;;;;;;5030692;28;20443;-49
2022/07/10 11:41:35;;;;;;;2.50;1.40;;;24.10;74.00;;;;;;5033035;28;20128;-50
2022/07/10 11:44:02;;;;;;;4.88;1.38;;;24.20;71.60;;;;;;5034690;28;20091;-48
2022/07/10 11:46:28;;;;;;;3.55;1.30;;;24.10;71.40;;;;;;5033548;28;20400;-53
2022/07/10 11:48:58;;;;;;;6.00;1.33;;;24.20;71.60;;;;;;5030738;28;20103;-50
2022/07/10 11:51:25;;;;;;;3.35;1.67;;;24.30;72.20;;;;;;5035301;28;20090;-53
2022/07/10 11:53:52;;;;;;;2.95;1.40;;;24.30;72.40;;;;;;5033519;28;20037;-51
2022/07/10 11:56:19;;;;;;;4.35;1.50;;;24.50;71.70;;;;;;5033451;28;20033;-54
2022/07/10 11:58:45;;;;;;;4.03;1.42;;;24.50;72.10;;;;;;5028080;28;20488;-51
2022/07/10 12:01:14;;;;;;;3.72;1.65;;;24.40;71.80;;;;;;5032574;28;20060;-50
2022/07/10 12:03:41;;;;;;;6.47;1.55;;;24.40;72.10;;;;;;5030149;28;20112;-52
2022/07/10 12:06:08;;;;;;;4.88;1.55;;;24.30;72.80;;;;;;5032998;28;20099;-47
2022/07/10 12:08:35;;;;;;;3.67;1.60;;;24.50;73.20;;;;;;5027342;28;20323;-50
2022/07/10 12:11:01;;;;;;;2.67;1.50;;;24.50;72.80;;;;;;5033208;28;20049;-50
2022/07/10 12:13:28;;;;;;;7.72;2.08;;;24.60;72.10;;;;;;5033249;28;20428;-49
2022/07/10 12:15:55;;;;;;;4.22;1.48;;;24.80;72.20;;;;;;5033268;28;20057;-47
2022/07/10 12:18:22;;;;;;;4.65;1.20;;;24.90;71.40;;;;;;5035526;28;20502;-49
2022/07/10 12:20:49;;;;;;;2.72;1.23;;;24.80;70.50;;;;;;5033392;28;20080;-46
2022/07/10 12:23:16;;;;;;;2.60;1.30;;;24.80;70.50;;;;;;5037956;28;20045;-49
